Donnie Sonier — WDF9285 — position and weather

sailwx.info

Track history (hours):
 
Tides and Currents Weather Stations Pressure Air Temp Water Temp Dewpoint Dewpoint Depression Visibility Wind Speed Wind Dir Waves Ship Positions

Donnie Sonier

Owner: LeBeouf Bros. Towing, LLC, Houma, LA. More information available from US FCC via Universal Licensing System and Coast Guard Vessel Documentation Center.

Last reported at 2016-Feb-11 22:28 UTC. Time now 2016-Feb-13 00:25 UTC.
Position N 29°32' W 090°48'.

Length 22 m.

Type: Tug. MMSI: 367503580.

Date/timePositionNaut miles runAvg speedWind from/ knotsBaromVisibWave heightAir tempDewpointWater temp
2016-Feb-11 22:28N 29°32' W 090°48'3 2.9
2016-Feb-11 21:33N 29°34' W 090°45'3 2.9
2016-Feb-11 20:33N 29°36' W 090°43'2 2.3
2016-Feb-11 19:33N 29°36' W 090°40'4 3.6
2016-Feb-11 18:33N 29°35' W 090°36'1 0.6
2016-Feb-11 17:33N 29°34' W 090°36'0 0.0
2016-Feb-11 16:33N 29°34' W 090°36'1 0.8
2016-Feb-11 15:33N 29°34' W 090°35'4 3.7
2016-Feb-11 14:33N 29°34' W 090°30'5 4.3
2016-Feb-11 13:27N 29°33' W 090°25'  
Track history (hours):
 
Tides and Currents Weather Stations Pressure Air Temp Water Temp Dewpoint Dewpoint Depression Visibility Wind Speed Wind Dir Waves Ship Positions

Donnie Sonier

Owner: LeBeouf Bros. Towing, LLC, Houma, LA. More information available from US FCC via Universal Licensing System and Coast Guard Vessel Documentation Center.

Last reported at 2016-Feb-11 22:28 UTC. Time now 2016-Feb-13 00:25 UTC.
Position N 29°32' W 090°48'.

Length 22 m.

Type: Tug. MMSI: 367503580.

Date/timePositionNaut miles runAvg speedWind from/ knotsBaromVisibWave heightAir tempDewpointWater temp
2016-Feb-11 22:28N 29°32' W 090°48'3 2.9
2016-Feb-11 21:33N 29°34' W 090°45'3 2.9
2016-Feb-11 20:33N 29°36' W 090°43'2 2.3
2016-Feb-11 19:33N 29°36' W 090°40'4 3.6
2016-Feb-11 18:33N 29°35' W 090°36'1 0.6
2016-Feb-11 17:33N 29°34' W 090°36'0 0.0
2016-Feb-11 16:33N 29°34' W 090°36'1 0.8
2016-Feb-11 15:33N 29°34' W 090°35'4 3.7
2016-Feb-11 14:33N 29°34' W 090°30'5 4.3
2016-Feb-11 13:27N 29°33' W 090°25'  

Dump ship's entire track history